sensor_id;sensor_type;location;lat;lon;timestamp;P1;durP1;ratioP1;P2;durP2;ratioP2
37859;SDS011;23698;52.014;5.190;2024-01-27T00:00:42;19.15;;;2.97;;
37859;SDS011;23698;52.014;5.190;2024-01-27T00:03:29;20.45;;;3.63;;
37859;SDS011;23698;52.014;5.190;2024-01-27T00:06:15;16.75;;;3.47;;
37859;SDS011;23698;52.014;5.190;2024-01-27T00:09:02;24.60;;;3.83;;
37859;SDS011;23698;52.014;5.190;2024-01-27T00:11:52;22.50;;;3.67;;
37859;SDS011;23698;52.014;5.190;2024-01-27T00:14:39;9.95;;;2.78;;
37859;SDS011;23698;52.014;5.190;2024-01-27T00:17:26;18.17;;;4.00;;
37859;SDS011;23698;52.014;5.190;2024-01-27T00:20:12;19.40;;;3.92;;
37859;SDS011;23698;52.014;5.190;2024-01-27T00:22:59;21.77;;;3.65;;
37859;SDS011;23698;52.014;5.190;2024-01-27T00:25:45;22.90;;;3.42;;
37859;SDS011;23698;52.014;5.190;2024-01-27T00:28:33;22.45;;;3.63;;
37859;SDS011;23698;52.014;5.190;2024-01-27T00:31:20;25.77;;;4.72;;
37859;SDS011;23698;52.014;5.190;2024-01-27T00:34:06;23.98;;;2.83;;
37859;SDS011;23698;52.014;5.190;2024-01-27T00:36:53;19.08;;;3.20;;
37859;SDS011;23698;52.014;5.190;2024-01-27T00:39:40;19.25;;;3.75;;
37859;SDS011;23698;52.014;5.190;2024-01-27T00:42:26;21.13;;;3.38;;
37859;SDS011;23698;52.014;5.190;2024-01-27T00:45:14;18.85;;;3.60;;
37859;SDS011;23698;52.014;5.190;2024-01-27T00:48:00;15.35;;;3.05;;
37859;SDS011;23698;52.014;5.190;2024-01-27T00:50:47;26.95;;;3.47;;
37859;SDS011;23698;52.014;5.190;2024-01-27T00:53:34;20.88;;;3.55;;
37859;SDS011;23698;52.014;5.190;2024-01-27T00:56:20;22.30;;;4.57;;
37859;SDS011;23698;52.014;5.190;2024-01-27T00:59:07;24.70;;;4.00;;
37859;SDS011;23698;52.014;5.190;2024-01-27T01:01:55;21.02;;;4.28;;
37859;SDS011;23698;52.014;5.190;2024-01-27T01:04:41;26.33;;;3.10;;
37859;SDS011;23698;52.014;5.190;2024-01-27T01:07:30;24.20;;;3.95;;
37859;SDS011;23698;52.014;5.190;2024-01-27T01:10:17;20.08;;;3.00;;
37859;SDS011;23698;52.014;5.190;2024-01-27T01:13:03;23.92;;;2.75;;
37859;SDS011;23698;52.014;5.190;2024-01-27T01:15:50;22.52;;;4.65;;
37859;SDS011;23698;52.014;5.190;2024-01-27T01:18:38;21.48;;;2.78;;
37859;SDS011;23698;52.014;5.190;2024-01-27T01:21:25;14.82;;;3.05;;
37859;SDS011;23698;52.014;5.190;2024-01-27T01:24:11;16.65;;;3.10;;
37859;SDS011;23698;52.014;5.190;2024-01-27T01:26:58;18.38;;;3.03;;
37859;SDS011;23698;52.014;5.190;2024-01-27T01:29:45;27.63;;;4.30;;
37859;SDS011;23698;52.014;5.190;2024-01-27T01:32:31;14.35;;;2.25;;
37859;SDS011;23698;52.014;5.190;2024-01-27T01:35:19;18.88;;;2.65;;
37859;SDS011;23698;52.014;5.190;2024-01-27T01:38:06;17.90;;;2.90;;
37859;SDS011;23698;52.014;5.190;2024-01-27T01:40:53;13.43;;;2.55;;
37859;SDS011;23698;52.014;5.190;2024-01-27T01:43:39;12.93;;;3.08;;
37859;SDS011;23698;52.014;5.190;2024-01-27T01:46:26;14.85;;;3.05;;
37859;SDS011;23698;52.014;5.190;2024-01-27T01:49:13;15.38;;;2.17;;
37859;SDS011;23698;52.014;5.190;2024-01-27T01:52:01;28.20;;;3.88;;
37859;SDS011;23698;52.014;5.190;2024-01-27T01:54:47;12.63;;;2.40;;
37859;SDS011;23698;52.014;5.190;2024-01-27T01:57:34;17.30;;;2.78;;
37859;SDS011;23698;52.014;5.190;2024-01-27T02:00:21;13.45;;;2.42;;
37859;SDS011;23698;52.014;5.190;2024-01-27T02:03:10;14.98;;;2.72;;
37859;SDS011;23698;52.014;5.190;2024-01-27T02:05:56;14.15;;;3.35;;
37859;SDS011;23698;52.014;5.190;2024-01-27T02:08:44;25.42;;;3.30;;
37859;SDS011;23698;52.014;5.190;2024-01-27T02:11:31;15.93;;;3.30;;
37859;SDS011;23698;52.014;5.190;2024-01-27T02:14:18;21.02;;;4.13;;
37859;SDS011;23698;52.014;5.190;2024-01-27T02:17:04;15.82;;;3.00;;
37859;SDS011;23698;52.014;5.190;2024-01-27T02:19:51;19.98;;;3.67;;
37859;SDS011;23698;52.014;5.190;2024-01-27T02:22:37;17.52;;;3.65;;
37859;SDS011;23698;52.014;5.190;2024-01-27T02:25:25;22.85;;;4.07;;
37859;SDS011;23698;52.014;5.190;2024-01-27T02:28:12;25.17;;;3.28;;
37859;SDS011;23698;52.014;5.190;2024-01-27T02:30:58;16.15;;;3.42;;
37859;SDS011;23698;52.014;5.190;2024-01-27T02:33:45;16.08;;;4.05;;
37859;SDS011;23698;52.014;5.190;2024-01-27T02:36:32;23.58;;;4.57;;
37859;SDS011;23698;52.014;5.190;2024-01-27T02:39:18;26.85;;;4.43;;
37859;SDS011;23698;52.014;5.190;2024-01-27T02:42:06;20.13;;;4.10;;
37859;SDS011;23698;52.014;5.190;2024-01-27T02:44:53;23.33;;;4.68;;
37859;SDS011;23698;52.014;5.190;2024-01-27T02:47:40;26.25;;;5.00;;
37859;SDS011;23698;52.014;5.190;2024-01-27T02:50:27;20.73;;;4.85;;
37859;SDS011;23698;52.014;5.190;2024-01-27T02:53:13;17.23;;;5.40;;
37859;SDS011;23698;52.014;5.190;2024-01-27T02:56:00;17.10;;;4.18;;
37859;SDS011;23698;52.014;5.190;2024-01-27T02:58:48;16.23;;;4.30;;
37859;SDS011;23698;52.014;5.190;2024-01-27T03:01:34;19.48;;;4.35;;
37859;SDS011;23698;52.014;5.190;2024-01-27T03:04:21;16.42;;;5.03;;
37859;SDS011;23698;52.014;5.190;2024-01-27T03:07:07;18.48;;;4.90;;
37859;SDS011;23698;52.014;5.190;2024-01-27T03:09:54;26.33;;;5.07;;
37859;SDS011;23698;52.014;5.190;2024-01-27T03:12:41;17.83;;;4.60;;
37859;SDS011;23698;52.014;5.190;2024-01-27T03:15:28;21.92;;;5.05;;
37859;SDS011;23698;52.014;5.190;2024-01-27T03:18:15;22.60;;;5.00;;
37859;SDS011;23698;52.014;5.190;2024-01-27T03:21:01;22.05;;;5.53;;
37859;SDS011;23698;52.014;5.190;2024-01-27T03:23:48;18.45;;;6.65;;
37859;SDS011;23698;52.014;5.190;2024-01-27T03:26:35;23.90;;;5.72;;
37859;SDS011;23698;52.014;5.190;2024-01-27T03:29:21;17.60;;;5.80;;
37859;SDS011;23698;52.014;5.190;2024-01-27T03:32:09;23.40;;;7.25;;
37859;SDS011;23698;52.014;5.190;2024-01-27T03:34:56;19.92;;;6.15;;
37859;SDS011;23698;52.014;5.190;2024-01-27T03:37:42;21.73;;;6.13;;
37859;SDS011;23698;52.014;5.190;2024-01-27T03:40:29;23.45;;;7.32;;
37859;SDS011;23698;52.014;5.190;2024-01-27T03:43:16;17.33;;;5.50;;
37859;SDS011;23698;52.014;5.190;2024-01-27T03:46:03;18.38;;;6.32;;
37859;SDS011;23698;52.014;5.190;2024-01-27T03:48:52;30.23;;;6.38;;
37859;SDS011;23698;52.014;5.190;2024-01-27T03:51:38;15.55;;;6.57;;
37859;SDS011;23698;52.014;5.190;2024-01-27T03:54:25;27.02;;;7.40;;
37859;SDS011;23698;52.014;5.190;2024-01-27T03:57:11;23.70;;;7.25;;
37859;SDS011;23698;52.014;5.190;2024-01-27T03:59:58;22.10;;;6.30;;
37859;SDS011;23698;52.014;5.190;2024-01-27T04:02:45;25.42;;;6.30;;
37859;SDS011;23698;52.014;5.190;2024-01-27T04:05:32;20.85;;;6.97;;
37859;SDS011;23698;52.014;5.190;2024-01-27T04:08:19;19.85;;;6.60;;
37859;SDS011;23698;52.014;5.190;2024-01-27T04:11:06;30.48;;;7.28;;
37859;SDS011;23698;52.014;5.190;2024-01-27T04:13:53;24.50;;;6.97;;
37859;SDS011;23698;52.014;5.190;2024-01-27T04:16:42;25.40;;;7.38;;
37859;SDS011;23698;52.014;5.190;2024-01-27T04:19:28;21.98;;;7.28;;
37859;SDS011;23698;52.014;5.190;2024-01-27T04:22:16;22.83;;;6.90;;
37859;SDS011;23698;52.014;5.190;2024-01-27T04:25:03;24.73;;;8.18;;
37859;SDS011;23698;52.014;5.190;2024-01-27T04:27:51;26.77;;;8.52;;
37859;SDS011;23698;52.014;5.190;2024-01-27T04:30:38;25.83;;;8.52;;
37859;SDS011;23698;52.014;5.190;2024-01-27T04:33:25;32.45;;;9.30;;
37859;SDS011;23698;52.014;5.190;2024-01-27T04:36:12;27.55;;;8.55;;
37859;SDS011;23698;52.014;5.190;2024-01-27T04:39:00;30.23;;;8.82;;
37859;SDS011;23698;52.014;5.190;2024-01-27T04:41:46;21.67;;;9.38;;
37859;SDS011;23698;52.014;5.190;2024-01-27T04:44:33;20.92;;;9.43;;
37859;SDS011;23698;52.014;5.190;2024-01-27T04:47:20;27.23;;;9.30;;
37859;SDS011;23698;52.014;5.190;2024-01-27T04:50:06;31.92;;;9.63;;
37859;SDS011;23698;52.014;5.190;2024-01-27T04:52:53;23.75;;;10.13;;
37859;SDS011;23698;52.014;5.190;2024-01-27T04:55:41;25.42;;;9.48;;
37859;SDS011;23698;52.014;5.190;2024-01-27T04:58:30;25.80;;;9.30;;
37859;SDS011;23698;52.014;5.190;2024-01-27T05:01:17;32.63;;;10.15;;
37859;SDS011;23698;52.014;5.190;2024-01-27T05:04:03;30.95;;;10.52;;
37859;SDS011;23698;52.014;5.190;2024-01-27T05:06:50;32.13;;;11.32;;
37859;SDS011;23698;52.014;5.190;2024-01-27T05:09:37;30.45;;;11.52;;
37859;SDS011;23698;52.014;5.190;2024-01-27T05:12:25;24.85;;;10.68;;
37859;SDS011;23698;52.014;5.190;2024-01-27T05:15:11;33.63;;;11.27;;
37859;SDS011;23698;52.014;5.190;2024-01-27T05:17:58;34.15;;;11.63;;
37859;SDS011;23698;52.014;5.190;2024-01-27T05:20:44;25.15;;;11.10;;
37859;SDS011;23698;52.014;5.190;2024-01-27T05:23:30;26.20;;;11.52;;
37859;SDS011;23698;52.014;5.190;2024-01-27T05:26:17;29.40;;;11.82;;
37859;SDS011;23698;52.014;5.190;2024-01-27T05:29:05;23.33;;;10.38;;
37859;SDS011;23698;52.014;5.190;2024-01-27T05:31:52;26.27;;;11.73;;
37859;SDS011;23698;52.014;5.190;2024-01-27T05:34:39;27.00;;;12.38;;
37859;SDS011;23698;52.014;5.190;2024-01-27T05:37:26;33.53;;;12.68;;
37859;SDS011;23698;52.014;5.190;2024-01-27T05:40:12;37.65;;;12.50;;
37859;SDS011;23698;52.014;5.190;2024-01-27T05:42:59;33.67;;;12.27;;
37859;SDS011;23698;52.014;5.190;2024-01-27T05:45:47;26.40;;;12.43;;
37859;SDS011;23698;52.014;5.190;2024-01-27T05:48:34;24.45;;;13.20;;
37859;SDS011;23698;52.014;5.190;2024-01-27T05:51:21;35.65;;;13.07;;
37859;SDS011;23698;52.014;5.190;2024-01-27T05:54:08;32.67;;;13.23;;
37859;SDS011;23698;52.014;5.190;2024-01-27T05:56:58;37.97;;;13.98;;
37859;SDS011;23698;52.014;5.190;2024-01-27T05:59:45;33.17;;;14.35;;
37859;SDS011;23698;52.014;5.190;2024-01-27T06:02:33;29.95;;;14.10;;
37859;SDS011;23698;52.014;5.190;2024-01-27T06:05:19;35.80;;;13.27;;
37859;SDS011;23698;52.014;5.190;2024-01-27T06:08:06;36.97;;;13.73;;
37859;SDS011;23698;52.014;5.190;2024-01-27T06:10:53;35.35;;;13.38;;
37859;SDS011;23698;52.014;5.190;2024-01-27T06:13:40;33.10;;;13.68;;
37859;SDS011;23698;52.014;5.190;2024-01-27T06:16:26;23.90;;;13.60;;
37859;SDS011;23698;52.014;5.190;2024-01-27T06:19:14;38.35;;;14.50;;
37859;SDS011;23698;52.014;5.190;2024-01-27T06:22:01;33.80;;;14.13;;
37859;SDS011;23698;52.014;5.190;2024-01-27T06:24:51;30.10;;;13.43;;
37859;SDS011;23698;52.014;5.190;2024-01-27T06:27:37;29.75;;;13.88;;
37859;SDS011;23698;52.014;5.190;2024-01-27T06:30:26;37.15;;;13.93;;
37859;SDS011;23698;52.014;5.190;2024-01-27T06:33:12;32.15;;;15.63;;
37859;SDS011;23698;52.014;5.190;2024-01-27T06:36:00;24.63;;;12.52;;
37859;SDS011;23698;52.014;5.190;2024-01-27T06:38:47;25.20;;;11.35;;
37859;SDS011;23698;52.014;5.190;2024-01-27T06:41:34;33.53;;;12.45;;
37859;SDS011;23698;52.014;5.190;2024-01-27T06:44:20;31.17;;;13.27;;
37859;SDS011;23698;52.014;5.190;2024-01-27T06:47:07;32.08;;;14.75;;
37859;SDS011;23698;52.014;5.190;2024-01-27T06:49:54;27.70;;;13.38;;
37859;SDS011;23698;52.014;5.190;2024-01-27T06:52:41;31.50;;;12.18;;
37859;SDS011;23698;52.014;5.190;2024-01-27T06:55:28;35.20;;;12.80;;
37859;SDS011;23698;52.014;5.190;2024-01-27T06:58:15;35.65;;;12.48;;
37859;SDS011;23698;52.014;5.190;2024-01-27T07:01:02;33.95;;;12.52;;
37859;SDS011;23698;52.014;5.190;2024-01-27T07:03:49;34.08;;;13.15;;
37859;SDS011;23698;52.014;5.190;2024-01-27T07:06:35;31.75;;;13.38;;
37859;SDS011;23698;52.014;5.190;2024-01-27T07:09:23;32.15;;;13.20;;
37859;SDS011;23698;52.014;5.190;2024-01-27T07:12:10;39.47;;;14.35;;
37859;SDS011;23698;52.014;5.190;2024-01-27T07:14:56;30.75;;;13.07;;
37859;SDS011;23698;52.014;5.190;2024-01-27T07:17:45;37.50;;;15.75;;
37859;SDS011;23698;52.014;5.190;2024-01-27T07:20:31;30.38;;;13.73;;
37859;SDS011;23698;52.014;5.190;2024-01-27T07:23:18;34.47;;;13.10;;
37859;SDS011;23698;52.014;5.190;2024-01-27T07:26:07;30.38;;;15.15;;
37859;SDS011;23698;52.014;5.190;2024-01-27T07:28:54;24.38;;;11.93;;
37859;SDS011;23698;52.014;5.190;2024-01-27T07:31:41;25.95;;;11.63;;
37859;SDS011;23698;52.014;5.190;2024-01-27T07:34:27;31.35;;;13.20;;
37859;SDS011;23698;52.014;5.190;2024-01-27T07:37:14;30.02;;;12.52;;
37859;SDS011;23698;52.014;5.190;2024-01-27T07:40:00;37.58;;;13.20;;
37859;SDS011;23698;52.014;5.190;2024-01-27T07:42:49;25.98;;;11.05;;
37859;SDS011;23698;52.014;5.190;2024-01-27T07:45:35;32.83;;;14.98;;
37859;SDS011;23698;52.014;5.190;2024-01-27T07:48:22;26.52;;;11.65;;
37859;SDS011;23698;52.014;5.190;2024-01-27T07:51:08;32.13;;;11.45;;
37859;SDS011;23698;52.014;5.190;2024-01-27T07:53:55;35.55;;;11.90;;
37859;SDS011;23698;52.014;5.190;2024-01-27T07:56:41;37.88;;;12.80;;
37859;SDS011;23698;52.014;5.190;2024-01-27T07:59:29;33.30;;;12.32;;
37859;SDS011;23698;52.014;5.190;2024-01-27T08:02:16;33.20;;;11.98;;
37859;SDS011;23698;52.014;5.190;2024-01-27T08:05:02;27.67;;;11.57;;
37859;SDS011;23698;52.014;5.190;2024-01-27T08:07:49;32.30;;;11.80;;
37859;SDS011;23698;52.014;5.190;2024-01-27T08:10:35;29.98;;;11.10;;
37859;SDS011;23698;52.014;5.190;2024-01-27T08:13:22;28.75;;;11.43;;
37859;SDS011;23698;52.014;5.190;2024-01-27T08:16:10;35.13;;;13.85;;
37859;SDS011;23698;52.014;5.190;2024-01-27T08:18:58;35.40;;;14.10;;
37859;SDS011;23698;52.014;5.190;2024-01-27T08:21:45;34.35;;;11.50;;
37859;SDS011;23698;52.014;5.190;2024-01-27T08:24:31;32.22;;;11.65;;
37859;SDS011;23698;52.014;5.190;2024-01-27T08:27:18;28.38;;;11.98;;
37859;SDS011;23698;52.014;5.190;2024-01-27T08:30:05;21.90;;;12.10;;
37859;SDS011;23698;52.014;5.190;2024-01-27T08:32:54;35.22;;;13.13;;
37859;SDS011;23698;52.014;5.190;2024-01-27T08:35:41;33.38;;;12.60;;
37859;SDS011;23698;52.014;5.190;2024-01-27T08:38:28;26.23;;;12.40;;
37859;SDS011;23698;52.014;5.190;2024-01-27T08:41:14;29.67;;;13.15;;
37859;SDS011;23698;52.014;5.190;2024-01-27T08:44:01;32.10;;;13.18;;
37859;SDS011;23698;52.014;5.190;2024-01-27T08:46:47;29.25;;;11.35;;
37859;SDS011;23698;52.014;5.190;2024-01-27T08:49:35;28.92;;;12.70;;
37859;SDS011;23698;52.014;5.190;2024-01-27T08:52:22;32.30;;;12.60;;
37859;SDS011;23698;52.014;5.190;2024-01-27T08:55:08;32.33;;;13.55;;
37859;SDS011;23698;52.014;5.190;2024-01-27T08:57:55;37.75;;;12.93;;
37859;SDS011;23698;52.014;5.190;2024-01-27T09:00:42;40.38;;;13.18;;
37859;SDS011;23698;52.014;5.190;2024-01-27T09:03:28;39.55;;;14.57;;
37859;SDS011;23698;52.014;5.190;2024-01-27T09:06:16;37.42;;;15.93;;
37859;SDS011;23698;52.014;5.190;2024-01-27T09:09:03;28.58;;;13.90;;
37859;SDS011;23698;52.014;5.190;2024-01-27T09:11:50;31.52;;;14.15;;
37859;SDS011;23698;52.014;5.190;2024-01-27T09:14:37;40.15;;;15.57;;
37859;SDS011;23698;52.014;5.190;2024-01-27T09:17:24;35.20;;;15.75;;
37859;SDS011;23698;52.014;5.190;2024-01-27T09:20:10;29.77;;;13.27;;
37859;SDS011;23698;52.014;5.190;2024-01-27T09:22:59;33.67;;;12.68;;
37859;SDS011;23698;52.014;5.190;2024-01-27T09:25:46;33.22;;;13.15;;
37859;SDS011;23698;52.014;5.190;2024-01-27T09:28:32;33.03;;;12.75;;
37859;SDS011;23698;52.014;5.190;2024-01-27T09:31:20;41.08;;;13.45;;
37859;SDS011;23698;52.014;5.190;2024-01-27T09:34:08;30.48;;;13.20;;
37859;SDS011;23698;52.014;5.190;2024-01-27T09:36:54;29.95;;;12.48;;
37859;SDS011;23698;52.014;5.190;2024-01-27T09:39:42;33.47;;;12.70;;
37859;SDS011;23698;52.014;5.190;2024-01-27T09:42:28;34.85;;;12.95;;
37859;SDS011;23698;52.014;5.190;2024-01-27T09:45:20;32.50;;;11.93;;
37859;SDS011;23698;52.014;5.190;2024-01-27T09:48:07;30.77;;;12.15;;
37859;SDS011;23698;52.014;5.190;2024-01-27T09:50:58;34.40;;;11.55;;
37859;SDS011;23698;52.014;5.190;2024-01-27T09:53:44;36.80;;;12.77;;
37859;SDS011;23698;52.014;5.190;2024-01-27T09:56:32;29.92;;;11.15;;
37859;SDS011;23698;52.014;5.190;2024-01-27T09:59:19;25.23;;;11.55;;
37859;SDS011;23698;52.014;5.190;2024-01-27T10:02:06;25.20;;;11.13;;
37859;SDS011;23698;52.014;5.190;2024-01-27T10:07:43;24.25;;;11.30;;
37859;SDS011;23698;52.014;5.190;2024-01-27T10:10:30;23.20;;;11.95;;
37859;SDS011;23698;52.014;5.190;2024-01-27T10:13:18;24.20;;;11.25;;
37859;SDS011;23698;52.014;5.190;2024-01-27T10:16:10;29.13;;;11.20;;
37859;SDS011;23698;52.014;5.190;2024-01-27T10:19:00;28.10;;;11.95;;
37859;SDS011;23698;52.014;5.190;2024-01-27T10:21:48;30.50;;;11.45;;
37859;SDS011;23698;52.014;5.190;2024-01-27T10:24:46;33.00;;;10.88;;
37859;SDS011;23698;52.014;5.190;2024-01-27T10:27:32;34.00;;;10.32;;
37859;SDS011;23698;52.014;5.190;2024-01-27T10:30:20;21.55;;;9.77;;
37859;SDS011;23698;52.014;5.190;2024-01-27T10:33:07;22.83;;;9.88;;
37859;SDS011;23698;52.014;5.190;2024-01-27T10:35:57;30.63;;;9.73;;
37859;SDS011;23698;52.014;5.190;2024-01-27T10:38:44;25.83;;;9.75;;
37859;SDS011;23698;52.014;5.190;2024-01-27T10:41:31;28.58;;;9.80;;
37859;SDS011;23698;52.014;5.190;2024-01-27T10:44:20;25.07;;;9.80;;
37859;SDS011;23698;52.014;5.190;2024-01-27T10:47:08;26.05;;;11.07;;
37859;SDS011;23698;52.014;5.190;2024-01-27T10:50:03;24.38;;;9.50;;
37859;SDS011;23698;52.014;5.190;2024-01-27T10:52:55;26.50;;;8.95;;
37859;SDS011;23698;52.014;5.190;2024-01-27T10:55:43;33.10;;;11.60;;
37859;SDS011;23698;52.014;5.190;2024-01-27T10:58:32;24.52;;;9.80;;
37859;SDS011;23698;52.014;5.190;2024-01-27T11:01:25;27.23;;;9.15;;
37859;SDS011;23698;52.014;5.190;2024-01-27T11:04:18;26.17;;;9.05;;
37859;SDS011;23698;52.014;5.190;2024-01-27T11:07:05;24.48;;;8.18;;
37859;SDS011;23698;52.014;5.190;2024-01-27T11:09:53;22.35;;;8.23;;
37859;SDS011;23698;52.014;5.190;2024-01-27T11:12:39;21.98;;;8.70;;
37859;SDS011;23698;52.014;5.190;2024-01-27T11:15:26;24.77;;;8.82;;
37859;SDS011;23698;52.014;5.190;2024-01-27T11:18:13;23.88;;;7.97;;
37859;SDS011;23698;52.014;5.190;2024-01-27T11:21:03;28.90;;;8.45;;
37859;SDS011;23698;52.014;5.190;2024-01-27T11:23:50;24.13;;;8.75;;
37859;SDS011;23698;52.014;5.190;2024-01-27T11:26:36;23.50;;;8.73;;
37859;SDS011;23698;52.014;5.190;2024-01-27T11:29:23;27.70;;;8.23;;
37859;SDS011;23698;52.014;5.190;2024-01-27T11:32:11;18.67;;;8.30;;
37859;SDS011;23698;52.014;5.190;2024-01-27T11:35:00;23.25;;;7.65;;
37859;SDS011;23698;52.014;5.190;2024-01-27T11:37:49;21.00;;;7.55;;
37859;SDS011;23698;52.014;5.190;2024-01-27T11:40:44;23.50;;;7.65;;
37859;SDS011;23698;52.014;5.190;2024-01-27T11:43:31;20.98;;;8.07;;
37859;SDS011;23698;52.014;5.190;2024-01-27T11:46:18;21.88;;;7.50;;
37859;SDS011;23698;52.014;5.190;2024-01-27T11:49:05;22.95;;;7.75;;
37859;SDS011;23698;52.014;5.190;2024-01-27T11:51:51;23.27;;;8.48;;
37859;SDS011;23698;52.014;5.190;2024-01-27T11:54:39;20.92;;;7.05;;
37859;SDS011;23698;52.014;5.190;2024-01-27T11:57:26;24.98;;;8.93;;
37859;SDS011;23698;52.014;5.190;2024-01-27T12:00:14;24.05;;;7.57;;
37859;SDS011;23698;52.014;5.190;2024-01-27T12:03:00;20.38;;;7.00;;
37859;SDS011;23698;52.014;5.190;2024-01-27T12:05:47;27.55;;;7.70;;
37859;SDS011;23698;52.014;5.190;2024-01-27T12:08:34;26.23;;;7.07;;
37859;SDS011;23698;52.014;5.190;2024-01-27T12:11:22;23.45;;;5.50;;
37859;SDS011;23698;52.014;5.190;2024-01-27T12:14:09;22.45;;;6.03;;
37859;SDS011;23698;52.014;5.190;2024-01-27T12:16:56;17.08;;;6.13;;
37859;SDS011;23698;52.014;5.190;2024-01-27T12:19:45;22.38;;;7.35;;
37859;SDS011;23698;52.014;5.190;2024-01-27T12:25:22;18.55;;;5.05;;
37859;SDS011;23698;52.014;5.190;2024-01-27T12:28:10;17.55;;;5.85;;
37859;SDS011;23698;52.014;5.190;2024-01-27T12:30:57;20.75;;;5.68;;
37859;SDS011;23698;52.014;5.190;2024-01-27T12:33:51;16.52;;;5.82;;
37859;SDS011;23698;52.014;5.190;2024-01-27T12:36:40;29.35;;;6.13;;
37859;SDS011;23698;52.014;5.190;2024-01-27T12:39:27;14.68;;;5.60;;
37859;SDS011;23698;52.014;5.190;2024-01-27T12:42:16;16.35;;;5.65;;
37859;SDS011;23698;52.014;5.190;2024-01-27T12:45:06;22.63;;;6.40;;
37859;SDS011;23698;52.014;5.190;2024-01-27T12:47:53;18.88;;;6.07;;
37859;SDS011;23698;52.014;5.190;2024-01-27T12:50:39;20.50;;;6.13;;
37859;SDS011;23698;52.014;5.190;2024-01-27T12:53:26;18.88;;;5.90;;
37859;SDS011;23698;52.014;5.190;2024-01-27T12:56:13;20.98;;;5.15;;
37859;SDS011;23698;52.014;5.190;2024-01-27T12:59:00;14.43;;;5.05;;
37859;SDS011;23698;52.014;5.190;2024-01-27T13:01:48;20.88;;;6.45;;
37859;SDS011;23698;52.014;5.190;2024-01-27T13:04:35;24.00;;;6.40;;
37859;SDS011;23698;52.014;5.190;2024-01-27T13:07:21;23.55;;;6.68;;
37859;SDS011;23698;52.014;5.190;2024-01-27T13:10:08;14.60;;;6.18;;
37859;SDS011;23698;52.014;5.190;2024-01-27T13:12:55;26.58;;;6.80;;
37859;SDS011;23698;52.014;5.190;2024-01-27T13:15:43;20.98;;;6.38;;
37859;SDS011;23698;52.014;5.190;2024-01-27T13:18:31;24.52;;;6.85;;
37859;SDS011;23698;52.014;5.190;2024-01-27T13:21:18;20.73;;;6.82;;
37859;SDS011;23698;52.014;5.190;2024-01-27T13:24:05;21.52;;;6.75;;
37859;SDS011;23698;52.014;5.190;2024-01-27T13:26:53;24.10;;;8.10;;
37859;SDS011;23698;52.014;5.190;2024-01-27T13:29:39;20.45;;;5.72;;
37859;SDS011;23698;52.014;5.190;2024-01-27T13:32:26;22.95;;;6.65;;
37859;SDS011;23698;52.014;5.190;2024-01-27T13:35:14;27.00;;;6.63;;
37859;SDS011;23698;52.014;5.190;2024-01-27T13:38:00;20.17;;;6.63;;
37859;SDS011;23698;52.014;5.190;2024-01-27T13:40:47;25.90;;;6.68;;
37859;SDS011;23698;52.014;5.190;2024-01-27T13:43:33;25.77;;;7.32;;
37859;SDS011;23698;52.014;5.190;2024-01-27T13:46:20;20.92;;;6.45;;
37859;SDS011;23698;52.014;5.190;2024-01-27T13:49:09;19.00;;;6.75;;
37859;SDS011;23698;52.014;5.190;2024-01-27T13:51:58;22.70;;;6.57;;
37859;SDS011;23698;52.014;5.190;2024-01-27T13:54:47;21.00;;;6.03;;
37859;SDS011;23698;52.014;5.190;2024-01-27T13:57:34;22.23;;;5.82;;
37859;SDS011;23698;52.014;5.190;2024-01-27T14:00:22;27.67;;;7.07;;
37859;SDS011;23698;52.014;5.190;2024-01-27T14:03:08;19.65;;;6.13;;
37859;SDS011;23698;52.014;5.190;2024-01-27T14:05:55;18.88;;;5.97;;
37859;SDS011;23698;52.014;5.190;2024-01-27T14:08:43;16.92;;;5.07;;
37859;SDS011;23698;52.014;5.190;2024-01-27T14:11:30;17.42;;;5.28;;
37859;SDS011;23698;52.014;5.190;2024-01-27T14:14:16;21.90;;;4.97;;
37859;SDS011;23698;52.014;5.190;2024-01-27T14:17:03;19.23;;;5.22;;
37859;SDS011;23698;52.014;5.190;2024-01-27T14:19:49;26.42;;;5.78;;
37859;SDS011;23698;52.014;5.190;2024-01-27T14:22:36;22.42;;;5.65;;
37859;SDS011;23698;52.014;5.190;2024-01-27T14:25:24;18.77;;;5.35;;
37859;SDS011;23698;52.014;5.190;2024-01-27T14:28:11;23.00;;;5.97;;
37859;SDS011;23698;52.014;5.190;2024-01-27T14:30:59;33.08;;;6.75;;
37859;SDS011;23698;52.014;5.190;2024-01-27T14:33:45;19.13;;;6.10;;
37859;SDS011;23698;52.014;5.190;2024-01-27T14:36:32;23.48;;;5.70;;
37859;SDS011;23698;52.014;5.190;2024-01-27T14:39:18;18.48;;;5.22;;
37859;SDS011;23698;52.014;5.190;2024-01-27T14:42:06;17.80;;;6.03;;
37859;SDS011;23698;52.014;5.190;2024-01-27T14:44:54;17.88;;;5.88;;
37859;SDS011;23698;52.014;5.190;2024-01-27T14:47:41;22.67;;;5.68;;
37859;SDS011;23698;52.014;5.190;2024-01-27T14:50:28;21.10;;;6.65;;
37859;SDS011;23698;52.014;5.190;2024-01-27T14:53:15;18.15;;;5.55;;
37859;SDS011;23698;52.014;5.190;2024-01-27T14:56:01;19.80;;;4.97;;
37859;SDS011;23698;52.014;5.190;2024-01-27T14:58:49;25.95;;;5.18;;
37859;SDS011;23698;52.014;5.190;2024-01-27T15:01:37;19.90;;;5.00;;
37859;SDS011;23698;52.014;5.190;2024-01-27T15:04:24;15.07;;;4.40;;
37859;SDS011;23698;52.014;5.190;2024-01-27T15:07:12;18.67;;;5.00;;
37859;SDS011;23698;52.014;5.190;2024-01-27T15:10:00;17.42;;;4.93;;
37859;SDS011;23698;52.014;5.190;2024-01-27T15:12:47;16.52;;;4.40;;
37859;SDS011;23698;52.014;5.190;2024-01-27T15:15:35;19.42;;;4.57;;
37859;SDS011;23698;52.014;5.190;2024-01-27T15:18:22;15.02;;;3.60;;
37859;SDS011;23698;52.014;5.190;2024-01-27T15:21:09;23.00;;;4.30;;
37859;SDS011;23698;52.014;5.190;2024-01-27T15:23:55;20.08;;;4.72;;
37859;SDS011;23698;52.014;5.190;2024-01-27T15:26:42;21.67;;;3.80;;
37859;SDS011;23698;52.014;5.190;2024-01-27T15:29:28;12.93;;;4.22;;
37859;SDS011;23698;52.014;5.190;2024-01-27T15:32:16;13.68;;;3.63;;
37859;SDS011;23698;52.014;5.190;2024-01-27T15:35:06;21.92;;;3.95;;
37859;SDS011;23698;52.014;5.190;2024-01-27T15:37:54;17.35;;;4.40;;
37859;SDS011;23698;52.014;5.190;2024-01-27T15:40:40;19.35;;;3.80;;
37859;SDS011;23698;52.014;5.190;2024-01-27T15:43:27;18.95;;;4.32;;
37859;SDS011;23698;52.014;5.190;2024-01-27T15:46:13;19.23;;;4.40;;
37859;SDS011;23698;52.014;5.190;2024-01-27T15:49:01;10.93;;;3.20;;
37859;SDS011;23698;52.014;5.190;2024-01-27T15:51:48;17.33;;;3.33;;
37859;SDS011;23698;52.014;5.190;2024-01-27T15:54:34;14.52;;;3.47;;
37859;SDS011;23698;52.014;5.190;2024-01-27T15:57:21;17.33;;;4.25;;
37859;SDS011;23698;52.014;5.190;2024-01-27T16:00:08;13.85;;;3.70;;
37859;SDS011;23698;52.014;5.190;2024-01-27T16:02:56;23.95;;;4.22;;
37859;SDS011;23698;52.014;5.190;2024-01-27T16:05:44;15.32;;;3.80;;
37859;SDS011;23698;52.014;5.190;2024-01-27T16:08:30;17.35;;;4.22;;
37859;SDS011;23698;52.014;5.190;2024-01-27T16:11:17;18.52;;;5.03;;
37859;SDS011;23698;52.014;5.190;2024-01-27T16:14:04;19.98;;;5.03;;
37859;SDS011;23698;52.014;5.190;2024-01-27T16:16:50;25.67;;;4.55;;
37859;SDS011;23698;52.014;5.190;2024-01-27T16:19:37;18.17;;;4.32;;
37859;SDS011;23698;52.014;5.190;2024-01-27T16:22:25;15.40;;;4.10;;
37859;SDS011;23698;52.014;5.190;2024-01-27T16:25:12;18.40;;;4.93;;
37859;SDS011;23698;52.014;5.190;2024-01-27T16:27:59;23.55;;;4.90;;
37859;SDS011;23698;52.014;5.190;2024-01-27T16:30:45;16.20;;;4.40;;
37859;SDS011;23698;52.014;5.190;2024-01-27T16:33:32;19.52;;;5.03;;